Time;durP1;ratioP1;P1;durP2;ratioP2;P2;SDS_P1;SDS_P2;PMS_P1;PMS_P2;Temp;Humidity;BMP_temperature;BMP_pressure;BME280_temperature;BME280_humidity;BME280_pressure;Samples;Min_cycle;Max_cycle;Signal;HPM_P1;HPM_P2
2023/12/28 00:02:01;;;;;;;;;3.00;3.00;;;;;;;;5097538;27;45498;-76
2023/12/28 00:04:27;;;;;;;;;1.00;1.00;;;;;;;;5097532;27;45463;-76
2023/12/28 00:06:53;;;;;;;;;2.00;2.00;;;;;;;;5097028;27;45506;-76
2023/12/28 00:09:18;;;;;;;;;1.67;1.00;;;;;;;;5097416;27;45537;-77
2023/12/28 00:11:44;;;;;;;;;2.75;2.50;;;;;;;;5097451;27;45471;-72
2023/12/28 00:14:09;;;;;;;;;0.00;0.00;;;;;;;;5099974;27;45420;-70
2023/12/28 00:16:37;;;;;;;;;2.00;1.00;;;;;;;;5101297;27;45960;-78
2023/12/28 00:19:03;;;;;;;;;1.00;1.00;;;;;;;;5100859;27;45778;-76
2023/12/28 00:21:29;;;;;;;;;0.75;0.75;;;;;;;;5101093;27;45477;-79
2023/12/28 00:23:54;;;;;;;;;2.00;1.00;;;;;;;;5100983;27;45422;-79
2023/12/28 00:26:21;;;;;;;;;1.00;1.00;;;;;;;;5100609;27;45387;-74
2023/12/28 00:28:46;;;;;;;;;1.00;1.00;;;;;;;;5100743;27;45544;-79
2023/12/28 00:31:12;;;;;;;;;1.00;1.00;;;;;;;;5100835;27;45501;-73
2023/12/28 00:33:37;;;;;;;;;0.50;0.50;;;;;;;;5101351;27;45350;-74
2023/12/28 00:36:03;;;;;;;;;1.00;1.00;;;;;;;;5100522;27;45229;-79
2023/12/28 00:38:28;;;;;;;;;0.50;0.50;;;;;;;;5100505;27;45414;-77
2023/12/28 00:40:53;;;;;;;;;0.00;0.00;;;;;;;;5100485;27;45517;-78
2023/12/28 00:43:19;;;;;;;;;0.00;0.00;;;;;;;;5100628;27;45362;-79
2023/12/28 00:45:44;;;;;;;;;0.50;0.50;;;;;;;;5100151;27;45861;-79
2023/12/28 00:48:09;;;;;;;;;0.75;0.00;;;;;;;;5100230;27;45449;-73
2023/12/28 00:50:35;;;;;;;;;1.00;0.25;;;;;;;;5099235;27;45431;-80
2023/12/28 00:53:00;;;;;;;;;0.00;0.00;;;;;;;;5100613;27;45194;-80
2023/12/28 00:55:27;;;;;;;;;0.00;0.00;;;;;;;;5098710;27;46300;-80
2023/12/28 00:57:53;;;;;;;;;0.00;0.00;;;;;;;;5100172;27;45331;-79
2023/12/28 01:00:18;;;;;;;;;0.00;0.00;;;;;;;;5098794;27;45462;-79
2023/12/28 01:02:46;;;;;;;;;1.00;0.67;;;;;;;;5100246;27;45422;-79
2023/12/28 01:05:12;;;;;;;;;0.67;0.67;;;;;;;;5099940;27;45980;-74
2023/12/28 01:07:37;;;;;;;;;0.00;0.00;;;;;;;;5100145;27;45547;-73
2023/12/28 01:10:03;;;;;;;;;1.33;0.00;;;;;;;;5100245;27;45940;-78
2023/12/28 01:12:28;;;;;;;;;0.00;0.00;;;;;;;;5098821;27;45492;-72
2023/12/28 01:14:53;;;;;;;;;0.00;0.00;;;;;;;;5099916;27;45443;-73
2023/12/28 01:17:19;;;;;;;;;0.50;0.00;;;;;;;;5099860;27;45325;-78
2023/12/28 01:19:45;;;;;;;;;1.67;0.00;;;;;;;;5100001;27;45312;-75
2023/12/28 01:22:10;;;;;;;;;0.00;0.00;;;;;;;;5100450;27;45350;-78
2023/12/28 01:24:35;;;;;;;;;0.00;0.00;;;;;;;;5099330;27;45455;-73
2023/12/28 01:27:01;;;;;;;;;1.67;0.00;;;;;;;;5099617;27;45305;-79
2023/12/28 01:29:26;;;;;;;;;0.00;0.00;;;;;;;;5099794;27;45550;-79
2023/12/28 01:31:51;;;;;;;;;1.00;1.00;;;;;;;;5099687;27;45493;-73
2023/12/28 01:34:17;;;;;;;;;0.00;0.00;;;;;;;;5099527;27;46116;-80
2023/12/28 01:36:44;;;;;;;;;0.00;0.00;;;;;;;;5099436;27;45511;-74
2023/12/28 01:39:10;;;;;;;;;0.00;0.00;;;;;;;;5100008;27;45396;-73
2023/12/28 01:41:36;;;;;;;;;1.00;1.00;;;;;;;;5099609;27;45356;-73
2023/12/28 01:44:01;;;;;;;;;0.33;0.00;;;;;;;;5099226;27;46035;-80
2023/12/28 01:46:27;;;;;;;;;0.00;0.00;;;;;;;;5099180;27;45350;-73
2023/12/28 01:48:52;;;;;;;;;0.00;0.00;;;;;;;;5099473;27;45543;-79
2023/12/28 01:51:19;;;;;;;;;0.00;0.00;;;;;;;;5099462;27;45382;-73
2023/12/28 01:53:45;;;;;;;;;0.00;0.00;;;;;;;;5098919;27;45425;-73
2023/12/28 01:56:10;;;;;;;;;0.00;0.00;;;;;;;;5099294;27;45357;-79
2023/12/28 01:58:37;;;;;;;;;0.00;0.00;;;;;;;;5099174;27;45497;-80
2023/12/28 02:01:03;;;;;;;;;0.00;0.00;;;;;;;;5098389;27;45490;-79
2023/12/28 02:03:29;;;;;;;;;0.75;0.50;;;;;;;;5097798;27;45482;-81
2023/12/28 02:05:55;;;;;;;;;0.75;0.75;;;;;;;;5099096;27;45312;-80
2023/12/28 02:08:20;;;;;;;;;0.00;0.00;;;;;;;;5097973;27;45407;-81
2023/12/28 02:10:46;;;;;;;;;0.00;0.00;;;;;;;;5099431;27;45504;-80
2023/12/28 02:13:11;;;;;;;;;0.00;0.00;;;;;;;;5099560;27;46100;-73
2023/12/28 02:15:36;;;;;;;;;0.00;0.00;;;;;;;;5099002;27;45305;-72
2023/12/28 02:18:05;;;;;;;;;0.00;0.00;;;;;;;;5099240;27;45339;-72
2023/12/28 02:20:31;;;;;;;;;0.00;0.00;;;;;;;;5099388;27;45389;-71
2023/12/28 02:22:57;;;;;;;;;0.00;0.00;;;;;;;;5098912;27;45287;-81
2023/12/28 02:25:22;;;;;;;;;1.00;0.00;;;;;;;;5098925;27;45759;-76
2023/12/28 02:27:49;;;;;;;;;0.00;0.00;;;;;;;;5099114;27;45406;-81
2023/12/28 02:30:17;;;;;;;;;0.00;0.00;;;;;;;;5099151;27;45377;-78
2023/12/28 02:32:55;;;;;;;;;0.00;0.00;;;;;;;;5097585;27;46309;-80
2023/12/28 02:35:24;;;;;;;;;1.00;0.00;;;;;;;;5098124;27;45167;-75
2023/12/28 02:37:52;;;;;;;;;0.00;0.00;;;;;;;;5098290;27;45342;-81
2023/12/28 02:40:17;;;;;;;;;1.00;0.25;;;;;;;;5097619;27;45552;-80
2023/12/28 02:42:43;;;;;;;;;0.00;0.00;;;;;;;;5098730;27;46129;-81
2023/12/28 02:45:09;;;;;;;;;0.00;0.00;;;;;;;;5098727;27;45444;-81
2023/12/28 02:47:34;;;;;;;;;1.00;0.00;;;;;;;;5098880;27;45562;-80
2023/12/28 02:49:59;;;;;;;;;0.00;0.00;;;;;;;;5098818;27;45409;-79
2023/12/28 02:52:25;;;;;;;;;0.00;0.00;;;;;;;;5098345;27;45558;-72
2023/12/28 02:54:50;;;;;;;;;0.00;0.00;;;;;;;;5098459;27;45413;-72
2023/12/28 02:57:18;;;;;;;;;0.00;0.00;;;;;;;;5098557;27;45497;-79
2023/12/28 02:59:44;;;;;;;;;1.00;0.00;;;;;;;;5099185;27;45362;-79
2023/12/28 03:02:10;;;;;;;;;0.00;0.00;;;;;;;;5098891;27;46279;-81
2023/12/28 03:04:35;;;;;;;;;1.00;0.00;;;;;;;;5098159;27;45408;-79
2023/12/28 03:07:01;;;;;;;;;0.00;0.00;;;;;;;;5098248;27;45387;-80
2023/12/28 03:09:26;;;;;;;;;0.33;0.33;;;;;;;;5098509;27;45474;-80
2023/12/28 03:11:52;;;;;;;;;0.00;0.00;;;;;;;;5097881;27;45304;-75
2023/12/28 03:14:17;;;;;;;;;1.00;1.00;;;;;;;;5098296;27;45370;-81
2023/12/28 03:16:43;;;;;;;;;0.33;0.00;;;;;;;;5098635;27;45381;-78
2023/12/28 03:19:08;;;;;;;;;0.00;0.00;;;;;;;;5097330;27;45223;-81
2023/12/28 03:21:38;;;;;;;;;0.00;0.00;;;;;;;;5096654;27;46287;-75
2023/12/28 03:24:03;;;;;;;;;0.00;0.00;;;;;;;;5098100;27;45300;-72
2023/12/28 03:26:28;;;;;;;;;0.00;0.00;;;;;;;;5097931;27;45462;-81
2023/12/28 03:28:54;;;;;;;;;0.00;0.00;;;;;;;;5098294;27;45176;-80
2023/12/28 03:31:19;;;;;;;;;0.00;0.00;;;;;;;;5097805;27;45264;-81
2023/12/28 03:33:45;;;;;;;;;1.00;1.00;;;;;;;;5098270;27;45313;-81
2023/12/28 03:36:17;;;;;;;;;0.00;0.00;;;;;;;;5098032;27;45361;-81
2023/12/28 03:38:42;;;;;;;;;0.00;0.00;;;;;;;;5098446;27;45363;-73
2023/12/28 03:41:15;;;;;;;;;0.00;0.00;;;;;;;;5097664;27;45451;-81
2023/12/28 03:43:41;;;;;;;;;1.00;1.00;;;;;;;;5097943;27;45503;-80
2023/12/28 03:46:06;;;;;;;;;0.00;0.00;;;;;;;;5097859;27;45362;-80
2023/12/28 03:48:31;;;;;;;;;0.00;0.00;;;;;;;;5097885;27;45451;-80
2023/12/28 03:50:57;;;;;;;;;1.00;1.00;;;;;;;;5097479;27;45521;-80
2023/12/28 03:53:22;;;;;;;;;0.00;0.00;;;;;;;;5097392;27;45442;-72
2023/12/28 03:55:47;;;;;;;;;0.00;0.00;;;;;;;;5097678;27;45521;-79
2023/12/28 03:58:13;;;;;;;;;0.00;0.00;;;;;;;;5098229;27;45307;-72
2023/12/28 04:00:38;;;;;;;;;0.00;0.00;;;;;;;;5097541;27;45323;-72
2023/12/28 04:03:04;;;;;;;;;0.00;0.00;;;;;;;;5097677;27;45391;-72
2023/12/28 04:05:29;;;;;;;;;0.00;0.00;;;;;;;;5097742;27;45451;-72
2023/12/28 04:07:54;;;;;;;;;0.00;0.00;;;;;;;;5097674;27;45397;-72
2023/12/28 04:10:29;;;;;;;;;0.33;0.33;;;;;;;;5097653;27;45323;-72
2023/12/28 04:12:57;;;;;;;;;0.33;0.00;;;;;;;;5097322;27;45639;-72
2023/12/28 04:15:22;;;;;;;;;1.00;0.00;;;;;;;;5097669;27;45838;-72
2023/12/28 04:17:48;;;;;;;;;0.00;0.00;;;;;;;;5095925;27;45650;-75
2023/12/28 04:20:13;;;;;;;;;0.00;0.00;;;;;;;;5097427;27;45406;-80
2023/12/28 04:22:38;;;;;;;;;0.67;0.67;;;;;;;;5097433;27;45372;-72
2023/12/28 04:25:04;;;;;;;;;0.67;0.67;;;;;;;;5097668;27;45186;-71
2023/12/28 04:27:29;;;;;;;;;0.00;0.00;;;;;;;;5097419;27;45302;-72
2023/12/28 04:29:55;;;;;;;;;0.00;0.00;;;;;;;;5095925;27;45483;-72
2023/12/28 04:32:20;;;;;;;;;0.00;0.00;;;;;;;;5097591;27;45522;-72
2023/12/28 04:34:45;;;;;;;;;0.33;0.33;;;;;;;;5097767;27;45220;-75
2023/12/28 04:37:11;;;;;;;;;0.00;0.00;;;;;;;;5097597;27;45594;-74
2023/12/28 04:39:37;;;;;;;;;0.00;0.00;;;;;;;;5097222;27;45454;-80
2023/12/28 04:42:02;;;;;;;;;0.50;0.50;;;;;;;;5097346;27;45447;-74
2023/12/28 04:44:28;;;;;;;;;1.00;1.00;;;;;;;;5097249;27;45406;-80
2023/12/28 04:46:53;;;;;;;;;0.00;0.00;;;;;;;;5097407;27;45579;-72
2023/12/28 04:49:18;;;;;;;;;0.00;0.00;;;;;;;;5097206;27;46069;-72
2023/12/28 04:51:44;;;;;;;;;1.00;0.00;;;;;;;;5096912;27;45416;-72
2023/12/28 04:54:09;;;;;;;;;1.00;0.00;;;;;;;;5097086;27;45665;-79
2023/12/28 04:56:35;;;;;;;;;1.00;0.00;;;;;;;;5097477;27;45298;-72
2023/12/28 04:59:00;;;;;;;;;0.00;0.00;;;;;;;;5097348;27;45282;-72
2023/12/28 05:01:25;;;;;;;;;1.00;1.00;;;;;;;;5100397;27;45750;-80
2023/12/28 05:03:51;;;;;;;;;0.33;0.33;;;;;;;;5085858;27;45633;-79
2023/12/28 05:06:16;;;;;;;;;1.00;1.00;;;;;;;;5091495;27;45415;-72
2023/12/28 05:08:42;;;;;;;;;0.33;0.33;;;;;;;;5098836;27;45985;-79
2023/12/28 05:11:07;;;;;;;;;0.00;0.00;;;;;;;;5098994;27;45379;-73
2023/12/28 05:13:34;;;;;;;;;0.75;0.75;;;;;;;;5099128;27;45615;-79
2023/12/28 05:16:00;;;;;;;;;0.33;0.33;;;;;;;;5096464;27;45456;-75
2023/12/28 05:18:26;;;;;;;;;0.00;0.00;;;;;;;;5099331;27;45369;-72
2023/12/28 05:20:51;;;;;;;;;0.33;0.33;;;;;;;;5099701;27;45421;-71
2023/12/28 05:23:17;;;;;;;;;0.00;0.00;;;;;;;;5100511;27;45447;-71
2023/12/28 05:25:42;;;;;;;;;0.33;0.33;;;;;;;;5100206;27;45465;-70
2023/12/28 05:28:08;;;;;;;;;0.67;0.00;;;;;;;;5099548;27;46133;-71
2023/12/28 05:30:33;;;;;;;;;1.00;1.00;;;;;;;;5099989;27;45444;-70
2023/12/28 05:32:58;;;;;;;;;1.00;0.00;;;;;;;;5098714;27;45528;-71
2023/12/28 05:35:24;;;;;;;;;0.00;0.00;;;;;;;;5099982;27;45309;-71
2023/12/28 05:37:49;;;;;;;;;0.00;0.00;;;;;;;;5099848;27;45445;-71
2023/12/28 05:40:14;;;;;;;;;1.00;1.00;;;;;;;;5099721;27;45368;-71
2023/12/28 05:42:40;;;;;;;;;2.00;2.00;;;;;;;;5099648;27;45482;-71
2023/12/28 05:45:05;;;;;;;;;1.00;1.00;;;;;;;;5100045;27;45459;-71
2023/12/28 05:47:31;;;;;;;;;1.33;1.00;;;;;;;;5099660;27;46049;-71
2023/12/28 05:49:56;;;;;;;;;1.00;0.33;;;;;;;;5099668;27;45467;-70
2023/12/28 05:52:21;;;;;;;;;1.00;1.00;;;;;;;;5100167;27;45305;-71
2023/12/28 05:54:48;;;;;;;;;1.00;0.67;;;;;;;;5100116;27;46144;-72
2023/12/28 05:57:13;;;;;;;;;0.00;0.00;;;;;;;;5099486;27;46133;-71
2023/12/28 05:59:39;;;;;;;;;1.00;0.00;;;;;;;;5099422;27;45229;-71
2023/12/28 06:02:05;;;;;;;;;0.00;0.00;;;;;;;;5099855;27;45421;-71
2023/12/28 06:04:33;;;;;;;;;0.00;0.00;;;;;;;;5099661;27;45266;-71
2023/12/28 06:06:58;;;;;;;;;0.00;0.00;;;;;;;;5099313;27;46164;-71
2023/12/28 06:09:23;;;;;;;;;0.00;0.00;;;;;;;;5099395;27;45501;-71
2023/12/28 06:11:49;;;;;;;;;0.00;0.00;;;;;;;;5098599;27;45465;-71
2023/12/28 06:14:14;;;;;;;;;1.00;0.67;;;;;;;;5098379;27;45519;-71
2023/12/28 06:16:39;;;;;;;;;0.00;0.00;;;;;;;;5099279;27;46041;-71
2023/12/28 06:19:05;;;;;;;;;1.00;1.00;;;;;;;;5099134;27;45310;-71
2023/12/28 06:21:31;;;;;;;;;1.00;1.00;;;;;;;;5099083;27;45551;-71
2023/12/28 06:23:56;;;;;;;;;2.50;2.00;;;;;;;;5099247;27;45468;-71
2023/12/28 06:26:22;;;;;;;;;1.00;1.00;;;;;;;;5099441;27;46220;-71
2023/12/28 06:28:47;;;;;;;;;2.50;2.00;;;;;;;;5099158;27;45294;-71
2023/12/28 06:31:13;;;;;;;;;2.00;2.00;;;;;;;;5099148;27;45429;-70
2023/12/28 06:33:38;;;;;;;;;1.00;1.00;;;;;;;;5099471;27;45575;-71
2023/12/28 06:36:07;;;;;;;;;1.00;1.00;;;;;;;;5098768;27;45398;-71
2023/12/28 06:38:33;;;;;;;;;1.00;1.00;;;;;;;;5099006;27;45499;-71
2023/12/28 06:40:58;;;;;;;;;1.50;1.00;;;;;;;;5098870;27;45326;-71
2023/12/28 06:43:23;;;;;;;;;1.00;1.00;;;;;;;;5099381;27;45293;-71
2023/12/28 06:45:49;;;;;;;;;1.75;1.75;;;;;;;;5098702;27;46124;-71
2023/12/28 06:48:14;;;;;;;;;2.00;2.00;;;;;;;;5098714;27;45306;-71
2023/12/28 06:50:39;;;;;;;;;13.25;11.00;;;;;;;;5098859;27;45420;-71
2023/12/28 06:53:05;;;;;;;;;19.00;16.00;;;;;;;;5098899;27;45784;-71
2023/12/28 06:55:30;;;;;;;;;11.50;9.25;;;;;;;;5098368;27;45887;-71
2023/12/28 06:57:56;;;;;;;;;9.25;7.50;;;;;;;;5098479;27;45332;-71
2023/12/28 07:00:21;;;;;;;;;5.75;5.75;;;;;;;;5098780;27;45938;-71
2023/12/28 07:02:46;;;;;;;;;2.00;2.00;;;;;;;;5098935;27;45476;-71
2023/12/28 07:05:13;;;;;;;;;3.00;3.00;;;;;;;;5098279;27;45444;-71
2023/12/28 07:07:39;;;;;;;;;3.25;3.25;;;;;;;;5098236;27;45429;-70
2023/12/28 07:10:04;;;;;;;;;6.00;5.50;;;;;;;;5097756;27;46656;-78
2023/12/28 07:12:30;;;;;;;;;1.00;1.00;;;;;;;;5097643;27;45590;-78
2023/12/28 07:14:55;;;;;;;;;1.00;0.00;;;;;;;;5097906;27;45576;-78
2023/12/28 07:17:20;;;;;;;;;1.00;1.00;;;;;;;;5097463;27;45466;-78
2023/12/28 07:19:46;;;;;;;;;3.25;3.25;;;;;;;;5097402;27;45624;-78
2023/12/28 07:22:11;;;;;;;;;2.00;2.00;;;;;;;;5097429;27;45482;-77
2023/12/28 07:24:37;;;;;;;;;4.00;4.00;;;;;;;;5097256;27;46180;-71
2023/12/28 07:27:02;;;;;;;;;3.00;2.50;;;;;;;;5097306;27;45819;-71
2023/12/28 07:29:27;;;;;;;;;2.00;1.00;;;;;;;;5097401;27;45455;-72
2023/12/28 07:31:54;;;;;;;;;1.33;1.00;;;;;;;;5098140;27;45486;-76
2023/12/28 07:34:19;;;;;;;;;1.00;1.00;;;;;;;;5097005;27;45632;-77
2023/12/28 07:36:45;;;;;;;;;1.00;0.67;;;;;;;;5095582;27;45510;-72
2023/12/28 07:39:10;;;;;;;;;3.75;3.00;;;;;;;;5095988;27;45232;-76
2023/12/28 07:41:36;;;;;;;;;3.00;2.00;;;;;;;;5097397;27;45305;-77
2023/12/28 07:44:01;;;;;;;;;2.00;2.00;;;;;;;;5096924;27;45481;-78
2023/12/28 07:46:27;;;;;;;;;2.00;1.75;;;;;;;;5094733;27;45301;-77
2023/12/28 07:48:52;;;;;;;;;2.00;2.00;;;;;;;;5097102;27;45592;-78
2023/12/28 07:51:17;;;;;;;;;3.00;3.00;;;;;;;;5097389;27;45877;-72
2023/12/28 07:53:43;;;;;;;;;3.75;3.25;;;;;;;;5097078;27;45776;-78
2023/12/28 07:56:08;;;;;;;;;16.00;16.00;;;;;;;;5096707;27;45217;-71
2023/12/28 07:58:37;;;;;;;;;9.50;6.25;;;;;;;;5096881;27;45254;-77
2023/12/28 08:01:02;;;;;;;;;4.00;3.00;;;;;;;;5097211;27;45338;-76
2023/12/28 08:03:27;;;;;;;;;2.00;0.00;;;;;;;;5096999;27;45959;-77
2023/12/28 08:05:53;;;;;;;;;1.00;1.00;;;;;;;;5096778;27;45423;-70
2023/12/28 08:08:18;;;;;;;;;1.33;1.00;;;;;;;;5096907;27;45496;-75
2023/12/28 08:10:44;;;;;;;;;2.50;2.00;;;;;;;;5097026;27;45299;-76
2023/12/28 08:13:09;;;;;;;;;2.00;2.00;;;;;;;;5096759;27;45332;-77
2023/12/28 08:15:35;;;;;;;;;1.00;1.00;;;;;;;;5096732;27;45423;-71
2023/12/28 08:18:00;;;;;;;;;1.00;1.00;;;;;;;;5096514;27;45487;-71
2023/12/28 08:20:25;;;;;;;;;2.00;2.00;;;;;;;;5097196;27;45419;-71
2023/12/28 08:22:51;;;;;;;;;3.00;3.00;;;;;;;;5095060;27;45490;-73
2023/12/28 08:25:17;;;;;;;;;2.00;2.00;;;;;;;;5096504;27;45599;-71
2023/12/28 08:27:42;;;;;;;;;1.00;1.00;;;;;;;;5096476;27;45801;-77
2023/12/28 08:30:08;;;;;;;;;1.00;1.00;;;;;;;;5096891;27;45226;-77
2023/12/28 08:32:33;;;;;;;;;1.00;1.00;;;;;;;;5096164;27;45563;-76
2023/12/28 08:34:59;;;;;;;;;2.00;2.00;;;;;;;;5098736;27;45439;-71
2023/12/28 08:37:24;;;;;;;;;2.67;2.33;;;;;;;;5100347;27;45461;-72
2023/12/28 08:39:53;;;;;;;;;2.00;2.00;;;;;;;;5101139;27;45916;-73
2023/12/28 08:42:18;;;;;;;;;3.00;3.00;;;;;;;;5100775;27;45426;-71
2023/12/28 08:44:43;;;;;;;;;3.67;3.33;;;;;;;;5100691;27;45466;-71
2023/12/28 08:47:09;;;;;;;;;2.00;2.00;;;;;;;;5100582;27;45549;-71
2023/12/28 08:49:34;;;;;;;;;2.00;1.00;;;;;;;;5100612;27;45384;-72
2023/12/28 08:51:59;;;;;;;;;2.00;2.00;;;;;;;;5099347;27;46274;-76
2023/12/28 08:54:25;;;;;;;;;4.00;2.67;;;;;;;;5100359;27;45630;-76
2023/12/28 08:56:50;;;;;;;;;8.00;8.00;;;;;;;;5100552;27;45433;-70
2023/12/28 08:59:16;;;;;;;;;9.50;9.00;;;;;;;;5100316;27;45408;-71
2023/12/28 09:01:42;;;;;;;;;19.75;19.25;;;;;;;;5099974;27;45453;-71
2023/12/28 09:04:08;;;;;;;;;9.00;8.25;;;;;;;;5100416;27;45478;-72
2023/12/28 09:06:33;;;;;;;;;3.00;2.00;;;;;;;;5100421;27;45192;-71
2023/12/28 09:08:58;;;;;;;;;1.00;1.00;;;;;;;;5100818;27;45441;-74
2023/12/28 09:11:24;;;;;;;;;1.00;1.00;;;;;;;;5100091;27;45988;-72
2023/12/28 09:13:49;;;;;;;;;3.50;3.00;;;;;;;;5100389;27;45287;-72
2023/12/28 09:16:15;;;;;;;;;2.67;2.00;;;;;;;;5099687;27;45554;-71
2023/12/28 09:18:41;;;;;;;;;3.67;2.67;;;;;;;;5100184;27;45292;-79
2023/12/28 09:21:07;;;;;;;;;2.67;2.67;;;;;;;;5099763;27;46152;-80
2023/12/28 09:23:33;;;;;;;;;5.00;4.00;;;;;;;;5100281;27;46162;-71
2023/12/28 09:26:04;;;;;;;;;2.67;2.00;;;;;;;;5100372;27;45507;-72
2023/12/28 09:28:30;;;;;;;;;0.00;0.00;;;;;;;;5100230;27;45531;-71
2023/12/28 09:30:55;;;;;;;;;3.00;3.00;;;;;;;;5099299;27;45323;-71
2023/12/28 09:33:21;;;;;;;;;2.00;2.00;;;;;;;;5099786;27;45414;-72
2023/12/28 09:35:46;;;;;;;;;2.00;2.00;;;;;;;;5099795;27;45254;-71
2023/12/28 09:38:12;;;;;;;;;2.00;2.00;;;;;;;;5099943;27;45241;-73
2023/12/28 09:40:37;;;;;;;;;0.33;0.33;;;;;;;;5099580;27;45869;-71
2023/12/28 09:43:06;;;;;;;;;2.00;1.00;;;;;;;;5099309;27;45353;-71
2023/12/28 09:45:31;;;;;;;;;2.00;1.00;;;;;;;;5099406;27;45483;-71
2023/12/28 09:47:57;;;;;;;;;0.00;0.00;;;;;;;;5099398;27;45410;-71
2023/12/28 09:50:26;;;;;;;;;1.00;1.00;;;;;;;;5099563;27;45561;-70
2023/12/28 09:52:51;;;;;;;;;1.00;1.00;;;;;;;;5099647;27;45511;-74
2023/12/28 09:55:17;;;;;;;;;0.33;0.33;;;;;;;;5099044;27;45301;-70
2023/12/28 09:57:43;;;;;;;;;1.33;1.00;;;;;;;;5099780;27;45278;-71
2023/12/28 10:00:09;;;;;;;;;1.67;1.67;;;;;;;;5099008;27;45853;-71
2023/12/28 10:02:36;;;;;;;;;14.50;14.50;;;;;;;;5099324;27;45423;-71
2023/12/28 10:05:01;;;;;;;;;3.00;3.00;;;;;;;;5099589;27;45699;-75
2023/12/28 10:07:26;;;;;;;;;2.00;1.00;;;;;;;;5098982;27;45426;-71
2023/12/28 10:09:52;;;;;;;;;2.00;1.67;;;;;;;;5099026;27;45396;-71
2023/12/28 10:12:17;;;;;;;;;2.00;2.00;;;;;;;;5099154;27;45420;-71
2023/12/28 10:14:43;;;;;;;;;3.33;2.00;;;;;;;;5098862;27;45480;-70
2023/12/28 10:17:09;;;;;;;;;5.00;5.00;;;;;;;;5098991;27;45390;-71
2023/12/28 10:19:36;;;;;;;;;2.00;1.67;;;;;;;;5099251;27;45983;-72
2023/12/28 10:22:01;;;;;;;;;3.00;3.00;;;;;;;;5098929;27;45321;-70
2023/12/28 10:24:27;;;;;;;;;3.00;3.00;;;;;;;;5099072;27;45471;-71
2023/12/28 10:26:53;;;;;;;;;4.00;4.00;;;;;;;;5098890;27;45327;-70
2023/12/28 10:29:18;;;;;;;;;3.00;3.00;;;;;;;;5098561;27;46252;-71
2023/12/28 10:31:44;;;;;;;;;3.00;3.00;;;;;;;;5098948;27;45362;-71
2023/12/28 10:34:09;;;;;;;;;3.00;3.00;;;;;;;;5098745;27;45412;-71
2023/12/28 10:36:36;;;;;;;;;3.00;3.00;;;;;;;;5099351;27;45511;-71
2023/12/28 10:39:04;;;;;;;;;5.00;5.00;;;;;;;;5099021;27;45411;-71
2023/12/28 10:41:30;;;;;;;;;2.00;2.00;;;;;;;;5098513;27;45487;-71
2023/12/28 10:44:05;;;;;;;;;1.33;1.33;;;;;;;;5098406;27;45503;-71
2023/12/28 10:46:31;;;;;;;;;2.00;2.00;;;;;;;;5098841;27;45277;-71
2023/12/28 10:49:04;;;;;;;;;1.00;1.00;;;;;;;;5098138;27;45512;-71
2023/12/28 10:51:30;;;;;;;;;2.67;2.67;;;;;;;;5098233;27;45372;-70
2023/12/28 10:54:01;;;;;;;;;2.00;2.00;;;;;;;;5098235;27;45498;-71
2023/12/28 10:56:37;;;;;;;;;2.00;2.00;;;;;;;;5097953;27;45254;-71
2023/12/28 10:59:03;;;;;;;;;5.00;4.00;;;;;;;;5096990;27;47813;-71
2023/12/28 11:01:31;;;;;;;;;3.00;3.00;;;;;;;;5098447;27;45710;-71
2023/12/28 11:04:08;;;;;;;;;2.00;2.00;;;;;;;;5097980;27;45471;-71
2023/12/28 11:06:34;;;;;;;;;2.00;2.00;;;;;;;;5098052;27;45586;-72
2023/12/28 11:09:00;;;;;;;;;6.00;5.00;;;;;;;;5097282;27;45442;-72
2023/12/28 11:11:27;;;;;;;;;4.67;4.67;;;;;;;;5100413;27;45306;-74
2023/12/28 11:13:53;;;;;;;;;3.00;3.00;;;;;;;;5108193;27;45404;-74
2023/12/28 11:16:20;;;;;;;;;3.00;3.00;;;;;;;;5108193;27;45247;-72
2023/12/28 11:18:46;;;;;;;;;7.00;5.67;;;;;;;;5118131;27;45455;-71
2023/12/28 11:21:11;;;;;;;;;5.00;4.67;;;;;;;;5117872;27;45383;-71
2023/12/28 11:23:37;;;;;;;;;3.00;3.00;;;;;;;;5118694;27;45455;-70
2023/12/28 11:26:03;;;;;;;;;1.00;0.00;;;;;;;;5115359;27;45412;-79
2023/12/28 11:28:28;;;;;;;;;4.00;3.00;;;;;;;;5111832;27;46140;-72
2023/12/28 11:30:53;;;;;;;;;5.67;5.33;;;;;;;;5118458;27;45346;-72
2023/12/28 11:33:19;;;;;;;;;3.00;2.33;;;;;;;;5117299;27;45328;-71
2023/12/28 11:35:47;;;;;;;;;2.67;2.00;;;;;;;;5117331;27;45440;-74
2023/12/28 11:38:15;;;;;;;;;13.67;13.00;;;;;;;;5108739;27;45469;-80
2023/12/28 11:40:46;;;;;;;;;4.00;3.00;;;;;;;;5112208;27;46189;-76
2023/12/28 11:43:18;;;;;;;;;4.33;4.00;;;;;;;;5094203;27;45503;-81
2023/12/28 11:45:51;;;;;;;;;6.33;5.67;;;;;;;;5097610;27;45439;-71
2023/12/28 11:48:27;;;;;;;;;3.00;2.33;;;;;;;;5096953;27;45465;-71
2023/12/28 11:50:57;;;;;;;;;2.00;2.00;;;;;;;;5097193;27;45168;-72
2023/12/28 11:53:23;;;;;;;;;4.00;3.00;;;;;;;;5097337;27;45402;-72
2023/12/28 11:55:48;;;;;;;;;1.67;1.67;;;;;;;;5097188;27;45414;-72
2023/12/28 11:58:15;;;;;;;;;2.00;2.00;;;;;;;;5096875;27;45510;-72
2023/12/28 12:00:40;;;;;;;;;1.67;1.33;;;;;;;;5079633;27;45552;-73
2023/12/28 12:03:06;;;;;;;;;1.67;1.33;;;;;;;;5076837;28;45249;-73
2023/12/28 12:05:31;;;;;;;;;2.33;2.33;;;;;;;;5082205;27;45498;-72
2023/12/28 12:07:57;;;;;;;;;0.67;0.67;;;;;;;;5077265;28;45915;-72
2023/12/28 12:10:22;;;;;;;;;6.00;6.00;;;;;;;;5080658;28;45454;-72
2023/12/28 12:12:51;;;;;;;;;8.67;8.67;;;;;;;;5080889;28;46500;-72
2023/12/28 12:15:16;;;;;;;;;11.00;10.00;;;;;;;;5081025;28;46143;-71
2023/12/28 12:17:41;;;;;;;;;6.67;6.33;;;;;;;;5080677;28;45972;-72
2023/12/28 12:20:09;;;;;;;;;11.67;11.67;;;;;;;;5080665;28;45337;-77
2023/12/28 12:22:34;;;;;;;;;12.00;12.00;;;;;;;;5080517;28;45502;-71
2023/12/28 12:25:03;;;;;;;;;9.33;9.00;;;;;;;;5080653;28;45244;-71
2023/12/28 12:27:28;;;;;;;;;12.67;10.67;;;;;;;;5079836;28;45393;-72
2023/12/28 12:29:54;;;;;;;;;4.67;4.33;;;;;;;;5080300;28;45325;-72
2023/12/28 12:32:19;;;;;;;;;10.00;9.00;;;;;;;;5080320;28;45380;-71
2023/12/28 12:34:44;;;;;;;;;1.33;0.67;;;;;;;;5080542;28;45472;-71
2023/12/28 12:37:10;;;;;;;;;5.33;5.33;;;;;;;;5080710;28;46045;-71
2023/12/28 12:39:36;;;;;;;;;2.67;1.67;;;;;;;;5062002;28;45517;-72
2023/12/28 12:42:02;;;;;;;;;1.67;1.67;;;;;;;;5094032;27;45358;-72
2023/12/28 12:44:28;;;;;;;;;1.67;1.00;;;;;;;;5100846;27;45549;-71
2023/12/28 12:46:59;;;;;;;;;0.33;0.33;;;;;;;;5100197;27;45633;-72
2023/12/28 12:49:25;;;;;;;;;0.33;0.33;;;;;;;;5081951;27;45427;-70
2023/12/28 12:51:51;;;;;;;;;0.67;0.67;;;;;;;;5094148;27;45484;-72
2023/12/28 12:54:18;;;;;;;;;2.67;2.67;;;;;;;;5109954;27;45413;-73
2023/12/28 12:56:45;;;;;;;;;13.33;13.00;;;;;;;;5110526;27;45401;-72
2023/12/28 12:59:15;;;;;;;;;3.67;3.00;;;;;;;;5113694;27;45813;-72
2023/12/28 13:01:41;;;;;;;;;3.00;3.00;;;;;;;;5109151;27;45369;-72
2023/12/28 13:04:06;;;;;;;;;0.00;0.00;;;;;;;;5105294;27;45474;-73
2023/12/28 13:06:32;;;;;;;;;0.00;0.00;;;;;;;;5101783;27;45459;-73
2023/12/28 13:08:57;;;;;;;;;4.00;2.00;;;;;;;;5099374;27;45444;-72
2023/12/28 13:11:26;;;;;;;;;0.67;0.67;;;;;;;;5100798;27;45734;-73
2023/12/28 13:13:51;;;;;;;;;0.00;0.00;;;;;;;;5120152;27;45397;-73
2023/12/28 13:16:17;;;;;;;;;2.00;0.67;;;;;;;;5120016;27;46183;-72
2023/12/28 13:18:42;;;;;;;;;1.00;1.00;;;;;;;;5110058;27;45440;-73
2023/12/28 13:21:11;;;;;;;;;0.00;0.00;;;;;;;;5100422;27;45923;-71
2023/12/28 13:23:36;;;;;;;;;0.00;0.00;;;;;;;;5104918;27;45548;-72
2023/12/28 13:26:01;;;;;;;;;1.00;1.00;;;;;;;;5104390;27;45365;-72
2023/12/28 13:28:27;;;;;;;;;0.00;0.00;;;;;;;;5099173;27;45217;-72
2023/12/28 13:30:55;;;;;;;;;0.00;0.00;;;;;;;;5099451;27;45483;-72
2023/12/28 13:33:21;;;;;;;;;0.00;0.00;;;;;;;;5099139;27;45484;-72
2023/12/28 13:35:46;;;;;;;;;0.00;0.00;;;;;;;;5098050;27;45786;-72
2023/12/28 13:38:11;;;;;;;;;0.33;0.33;;;;;;;;5098221;27;45478;-72
2023/12/28 13:40:37;;;;;;;;;0.67;0.00;;;;;;;;5098658;27;45430;-71
2023/12/28 13:43:02;;;;;;;;;0.67;0.67;;;;;;;;5098607;27;45348;-72
2023/12/28 13:45:27;;;;;;;;;0.67;0.00;;;;;;;;5098902;27;45376;-73
2023/12/28 13:47:53;;;;;;;;;0.00;0.00;;;;;;;;5098356;27;45442;-72
2023/12/28 13:50:19;;;;;;;;;0.00;0.00;;;;;;;;5098042;27;45557;-71
2023/12/28 13:52:45;;;;;;;;;0.67;0.33;;;;;;;;5098138;27;46357;-71
2023/12/28 13:55:13;;;;;;;;;0.33;0.33;;;;;;;;5097789;27;46122;-72
2023/12/28 13:57:38;;;;;;;;;0.67;0.67;;;;;;;;5098129;27;45534;-72
2023/12/28 14:00:05;;;;;;;;;1.33;1.00;;;;;;;;5097986;27;45276;-72
2023/12/28 14:02:30;;;;;;;;;0.67;0.67;;;;;;;;5097801;27;45434;-71
2023/12/28 14:04:56;;;;;;;;;1.33;0.67;;;;;;;;5097683;27;45885;-72
2023/12/28 14:07:24;;;;;;;;;1.33;0.67;;;;;;;;5097352;27;45368;-71
2023/12/28 14:09:50;;;;;;;;;2.00;1.67;;;;;;;;5096522;27;45455;-72
2023/12/28 14:12:15;;;;;;;;;0.67;0.33;;;;;;;;5096895;27;45414;-72
2023/12/28 14:14:43;;;;;;;;;0.33;0.33;;;;;;;;5097579;27;46047;-73
2023/12/28 14:17:09;;;;;;;;;0.33;0.33;;;;;;;;5096456;27;45484;-72
2023/12/28 14:19:34;;;;;;;;;0.67;0.67;;;;;;;;5097170;27;45574;-72
2023/12/28 14:22:00;;;;;;;;;2.33;1.67;;;;;;;;5097233;27;45330;-72
2023/12/28 14:24:26;;;;;;;;;1.33;0.67;;;;;;;;5097092;27;45463;-72
2023/12/28 14:26:53;;;;;;;;;0.67;0.67;;;;;;;;5097180;27;45394;-72
2023/12/28 14:29:19;;;;;;;;;0.67;0.33;;;;;;;;5098081;27;45286;-73
2023/12/28 14:31:45;;;;;;;;;0.67;0.67;;;;;;;;5098099;27;45389;-73
2023/12/28 14:34:10;;;;;;;;;3.33;3.33;;;;;;;;5089161;27;45372;-72
2023/12/28 14:36:39;;;;;;;;;1.00;1.00;;;;;;;;5075912;28;45723;-72